sensor_id;sensor_type;location;lat;lon;timestamp;pressure;altitude;pressure_sealevel;temperature;humidity
16777;BME280;8505;49.456;8.164;2024-03-23T00:54:25;98917.13;;;8.00;100.00
16777;BME280;8505;49.456;8.164;2024-03-23T00:56:51;98907.69;;;8.06;100.00
16777;BME280;8505;49.456;8.164;2024-03-23T00:59:18;98916.81;;;8.18;100.00
16777;BME280;8505;49.456;8.164;2024-03-23T01:01:44;98906.69;;;8.07;100.00
16777;BME280;8505;49.456;8.164;2024-03-23T01:04:11;98887.03;;;8.09;100.00
16777;BME280;8505;49.456;8.164;2024-03-23T01:06:36;98895.44;;;8.13;100.00
16777;BME280;8505;49.456;8.164;2024-03-23T01:09:03;98898.25;;;8.11;100.00
16777;BME280;8505;49.456;8.164;2024-03-23T01:11:30;98898.53;;;8.17;100.00
16777;BME280;8505;49.456;8.164;2024-03-23T01:13:57;98899.53;;;8.16;100.00
16777;BME280;8505;49.456;8.164;2024-03-23T01:16:23;98891.19;;;8.04;100.00
16777;BME280;8505;49.456;8.164;2024-03-23T01:18:50;98887.69;;;8.11;100.00
16777;BME280;8505;49.456;8.164;2024-03-23T01:21:16;98887.97;;;8.17;100.00
16777;BME280;8505;49.456;8.164;2024-03-23T01:23:44;98882.47;;;8.26;100.00
16777;BME280;8505;49.456;8.164;2024-03-23T01:26:10;98882.56;;;8.56;100.00
16777;BME280;8505;49.456;8.164;2024-03-23T01:28:38;98882.31;;;8.65;100.00
16777;BME280;8505;49.456;8.164;2024-03-23T01:31:05;98886.59;;;8.81;100.00
16777;BME280;8505;49.456;8.164;2024-03-23T01:33:32;98883.69;;;8.90;100.00
16777;BME280;8505;49.456;8.164;2024-03-23T01:35:57;98892.78;;;9.03;100.00
16777;BME280;8505;49.456;8.164;2024-03-23T01:38:24;98887.78;;;9.08;100.00
16777;BME280;8505;49.456;8.164;2024-03-23T01:40:56;98881.69;;;9.22;100.00
16777;BME280;8505;49.456;8.164;2024-03-23T01:43:23;98874.19;;;9.40;100.00
16777;BME280;8505;49.456;8.164;2024-03-23T01:45:50;98874.22;;;9.61;100.00
16777;BME280;8505;49.456;8.164;2024-03-23T01:48:19;98878.69;;;9.61;100.00
16777;BME280;8505;49.456;8.164;2024-03-23T01:50:45;98875.63;;;9.79;100.00
16777;BME280;8505;49.456;8.164;2024-03-23T01:53:14;98872.41;;;9.83;100.00
16777;BME280;8505;49.456;8.164;2024-03-23T01:55:42;98860.03;;;9.84;100.00
16777;BME280;8505;49.456;8.164;2024-03-23T01:58:09;98859.66;;;9.87;100.00
16777;BME280;8505;49.456;8.164;2024-03-23T02:00:35;98854.63;;;9.92;100.00
16777;BME280;8505;49.456;8.164;2024-03-23T02:03:21;98850.66;;;10.02;100.00
16777;BME280;8505;49.456;8.164;2024-03-23T02:05:47;98839.63;;;9.99;100.00
16777;BME280;8505;49.456;8.164;2024-03-23T02:08:14;98845.47;;;9.94;100.00
16777;BME280;8505;49.456;8.164;2024-03-23T02:10:40;98842.41;;;9.91;100.00
16777;BME280;8505;49.456;8.164;2024-03-23T02:13:08;98843.22;;;9.91;100.00
16777;BME280;8505;49.456;8.164;2024-03-23T02:15:33;98842.72;;;10.02;100.00
16777;BME280;8505;49.456;8.164;2024-03-23T02:18:00;98835.16;;;9.99;100.00
16777;BME280;8505;49.456;8.164;2024-03-23T02:20:27;98829.19;;;10.12;100.00
16777;BME280;8505;49.456;8.164;2024-03-23T02:22:57;98823.00;;;10.05;100.00
16777;BME280;8505;49.456;8.164;2024-03-23T02:25:23;98817.19;;;10.16;99.84
16777;BME280;8505;49.456;8.164;2024-03-23T02:27:49;98818.69;;;10.25;99.66
16777;BME280;8505;49.456;8.164;2024-03-23T02:30:15;98820.06;;;10.42;99.00
16777;BME280;8505;49.456;8.164;2024-03-23T02:32:42;98823.31;;;10.44;97.88
16777;BME280;8505;49.456;8.164;2024-03-23T02:35:08;98823.59;;;10.56;96.25
16777;BME280;8505;49.456;8.164;2024-03-23T02:37:34;98823.56;;;10.77;93.60
16777;BME280;8505;49.456;8.164;2024-03-23T02:40:02;98821.81;;;10.91;92.73
16777;BME280;8505;49.456;8.164;2024-03-23T02:42:29;98819.66;;;11.14;89.83
16777;BME280;8505;49.456;8.164;2024-03-23T02:44:54;98829.31;;;10.87;90.86
16777;BME280;8505;49.456;8.164;2024-03-23T02:47:21;98820.72;;;10.79;91.82
16777;BME280;8505;49.456;8.164;2024-03-23T02:49:47;98830.41;;;10.65;92.33
16777;BME280;8505;49.456;8.164;2024-03-23T02:52:14;98839.03;;;10.74;89.87
16777;BME280;8505;49.456;8.164;2024-03-23T02:54:39;98841.28;;;10.77;89.37
16777;BME280;8505;49.456;8.164;2024-03-23T02:57:09;98843.44;;;11.01;87.64
16777;BME280;8505;49.456;8.164;2024-03-23T02:59:34;98846.97;;;11.15;86.73
16777;BME280;8505;49.456;8.164;2024-03-23T03:02:01;98835.97;;;11.18;86.77
16777;BME280;8505;49.456;8.164;2024-03-23T03:04:30;98822.31;;;11.14;86.79
16777;BME280;8505;49.456;8.164;2024-03-23T03:06:56;98810.34;;;11.31;86.01
16777;BME280;8505;49.456;8.164;2024-03-23T03:09:22;98803.03;;;11.33;85.92
16777;BME280;8505;49.456;8.164;2024-03-23T03:11:49;98792.00;;;11.36;85.56
16777;BME280;8505;49.456;8.164;2024-03-23T03:14:16;98785.50;;;11.46;84.63
16777;BME280;8505;49.456;8.164;2024-03-23T03:16:43;98799.59;;;11.53;84.25
16777;BME280;8505;49.456;8.164;2024-03-23T03:19:08;98791.25;;;11.56;84.11
16777;BME280;8505;49.456;8.164;2024-03-23T03:21:36;98784.91;;;11.50;84.59
16777;BME280;8505;49.456;8.164;2024-03-23T03:24:02;98783.25;;;11.49;84.70
16777;BME280;8505;49.456;8.164;2024-03-23T03:26:29;98793.50;;;11.59;84.23
16777;BME280;8505;49.456;8.164;2024-03-23T03:28:55;98797.13;;;11.45;84.84
16777;BME280;8505;49.456;8.164;2024-03-23T03:31:23;98783.06;;;11.51;85.00
16777;BME280;8505;49.456;8.164;2024-03-23T03:33:50;98787.97;;;11.47;85.40
16777;BME280;8505;49.456;8.164;2024-03-23T03:36:17;98786.53;;;11.51;85.39
16777;BME280;8505;49.456;8.164;2024-03-23T03:38:42;98796.34;;;11.51;85.49
16777;BME280;8505;49.456;8.164;2024-03-23T03:41:09;98772.88;;;11.48;85.77
16777;BME280;8505;49.456;8.164;2024-03-23T03:43:35;98781.22;;;11.45;86.34
16777;BME280;8505;49.456;8.164;2024-03-23T03:46:02;98765.94;;;11.40;86.78
16777;BME280;8505;49.456;8.164;2024-03-23T03:48:29;98768.38;;;11.35;87.41
16777;BME280;8505;49.456;8.164;2024-03-23T03:50:56;98754.69;;;11.31;87.25
16777;BME280;8505;49.456;8.164;2024-03-23T03:53:22;98749.78;;;11.28;87.54
16777;BME280;8505;49.456;8.164;2024-03-23T03:55:49;98762.22;;;11.28;87.60
16777;BME280;8505;49.456;8.164;2024-03-23T03:58:14;98763.84;;;11.22;87.84
16777;BME280;8505;49.456;8.164;2024-03-23T04:00:41;98763.63;;;11.24;88.13
16777;BME280;8505;49.456;8.164;2024-03-23T04:03:07;98764.22;;;11.19;88.38
16777;BME280;8505;49.456;8.164;2024-03-23T04:05:35;98782.38;;;11.16;88.54
16777;BME280;8505;49.456;8.164;2024-03-23T04:08:01;98782.16;;;11.17;88.31
16777;BME280;8505;49.456;8.164;2024-03-23T04:10:28;98778.50;;;11.18;88.55
16777;BME280;8505;49.456;8.164;2024-03-23T04:12:53;98780.13;;;11.19;88.53
16777;BME280;8505;49.456;8.164;2024-03-23T04:15:20;98786.66;;;11.17;88.43
16777;BME280;8505;49.456;8.164;2024-03-23T04:17:46;98770.13;;;11.15;88.63
16777;BME280;8505;49.456;8.164;2024-03-23T04:20:13;98775.25;;;11.16;88.59
16777;BME280;8505;49.456;8.164;2024-03-23T04:22:43;98773.59;;;11.15;88.58
16777;BME280;8505;49.456;8.164;2024-03-23T04:25:10;98759.50;;;11.08;89.03
16777;BME280;8505;49.456;8.164;2024-03-23T04:27:36;98759.88;;;11.05;89.27
16777;BME280;8505;49.456;8.164;2024-03-23T04:30:04;98774.41;;;11.09;86.92
16777;BME280;8505;49.456;8.164;2024-03-23T04:32:35;98782.53;;;11.08;86.55
16777;BME280;8505;49.456;8.164;2024-03-23T04:35:02;98776.84;;;11.04;86.61
16777;BME280;8505;49.456;8.164;2024-03-23T04:37:28;98792.09;;;11.02;86.37
16777;BME280;8505;49.456;8.164;2024-03-23T04:39:56;98804.69;;;10.93;86.49
16777;BME280;8505;49.456;8.164;2024-03-23T04:42:23;98814.88;;;10.90;87.16
16777;BME280;8505;49.456;8.164;2024-03-23T04:44:50;98829.72;;;10.84;87.14
16777;BME280;8505;49.456;8.164;2024-03-23T04:47:17;98807.25;;;10.74;87.51
16777;BME280;8505;49.456;8.164;2024-03-23T04:49:44;98804.75;;;10.66;88.26
16777;BME280;8505;49.456;8.164;2024-03-23T04:52:10;98821.19;;;10.54;88.99
16777;BME280;8505;49.456;8.164;2024-03-23T04:54:36;98827.63;;;10.45;89.84
16777;BME280;8505;49.456;8.164;2024-03-23T04:57:04;98832.88;;;10.39;90.25
16777;BME280;8505;49.456;8.164;2024-03-23T04:59:30;98839.50;;;10.28;91.50
16777;BME280;8505;49.456;8.164;2024-03-23T05:01:56;98847.97;;;10.17;93.23
16777;BME280;8505;49.456;8.164;2024-03-23T05:04:23;98877.16;;;10.09;94.60
16777;BME280;8505;49.456;8.164;2024-03-23T05:06:49;98870.97;;;10.02;96.12
16777;BME280;8505;49.456;8.164;2024-03-23T05:09:17;98882.84;;;10.06;97.43
16777;BME280;8505;49.456;8.164;2024-03-23T05:11:42;98875.78;;;9.92;98.43
16777;BME280;8505;49.456;8.164;2024-03-23T05:14:12;98913.91;;;9.83;98.01
16777;BME280;8505;49.456;8.164;2024-03-23T05:16:38;98929.09;;;9.45;95.52
16777;BME280;8505;49.456;8.164;2024-03-23T05:19:05;98938.72;;;9.31;95.93
16777;BME280;8505;49.456;8.164;2024-03-23T05:21:30;98928.41;;;9.07;97.66
16777;BME280;8505;49.456;8.164;2024-03-23T05:23:57;98932.69;;;8.93;96.78
16777;BME280;8505;49.456;8.164;2024-03-23T05:26:23;98938.31;;;8.90;96.95
16777;BME280;8505;49.456;8.164;2024-03-23T05:28:50;98935.34;;;8.70;96.39
16777;BME280;8505;49.456;8.164;2024-03-23T05:31:24;98939.84;;;8.47;96.71
16777;BME280;8505;49.456;8.164;2024-03-23T05:33:50;98953.41;;;8.44;95.66
16777;BME280;8505;49.456;8.164;2024-03-23T05:36:17;98949.88;;;8.29;96.11
16777;BME280;8505;49.456;8.164;2024-03-23T05:38:44;98950.50;;;8.39;97.41
16777;BME280;8505;49.456;8.164;2024-03-23T05:41:10;98960.94;;;8.24;98.52
16777;BME280;8505;49.456;8.164;2024-03-23T05:43:37;98951.38;;;8.23;98.42
16777;BME280;8505;49.456;8.164;2024-03-23T05:46:03;98953.75;;;8.18;97.96
16777;BME280;8505;49.456;8.164;2024-03-23T05:48:32;98958.84;;;8.20;97.89
16777;BME280;8505;49.456;8.164;2024-03-23T05:50:58;98976.66;;;8.18;97.53
16777;BME280;8505;49.456;8.164;2024-03-23T05:53:25;98984.44;;;8.11;97.97
16777;BME280;8505;49.456;8.164;2024-03-23T05:55:51;98992.63;;;8.16;97.50
16777;BME280;8505;49.456;8.164;2024-03-23T05:58:19;98991.81;;;8.16;97.88
16777;BME280;8505;49.456;8.164;2024-03-23T06:00:46;99006.03;;;8.15;98.46
16777;BME280;8505;49.456;8.164;2024-03-23T06:03:12;99017.03;;;8.18;98.53
16777;BME280;8505;49.456;8.164;2024-03-23T06:05:40;99030.75;;;8.13;100.00
16777;BME280;8505;49.456;8.164;2024-03-23T06:08:06;99043.97;;;8.05;99.63
16777;BME280;8505;49.456;8.164;2024-03-23T06:10:35;99047.63;;;7.96;100.00
16777;BME280;8505;49.456;8.164;2024-03-23T06:13:00;99062.50;;;7.89;100.00
16777;BME280;8505;49.456;8.164;2024-03-23T06:15:27;99035.00;;;7.84;100.00
16777;BME280;8505;49.456;8.164;2024-03-23T06:17:53;99055.59;;;7.80;100.00
16777;BME280;8505;49.456;8.164;2024-03-23T06:20:20;99055.28;;;7.75;100.00
16777;BME280;8505;49.456;8.164;2024-03-23T06:22:47;99055.28;;;7.75;100.00
16777;BME280;8505;49.456;8.164;2024-03-23T06:25:14;99067.81;;;7.73;99.35
16777;BME280;8505;49.456;8.164;2024-03-23T06:27:40;99071.13;;;7.67;100.00
16777;BME280;8505;49.456;8.164;2024-03-23T06:30:07;99067.19;;;7.63;99.58
16777;BME280;8505;49.456;8.164;2024-03-23T06:32:33;99072.09;;;7.74;98.71
16777;BME280;8505;49.456;8.164;2024-03-23T06:35:00;99074.41;;;7.77;98.19
16777;BME280;8505;49.456;8.164;2024-03-23T06:37:25;99064.69;;;7.69;97.81
16777;BME280;8505;49.456;8.164;2024-03-23T06:39:55;99074.22;;;7.79;96.46
16777;BME280;8505;49.456;8.164;2024-03-23T06:42:21;99085.88;;;7.92;96.38
16777;BME280;8505;49.456;8.164;2024-03-23T06:44:48;99086.91;;;7.83;95.94
16777;BME280;8505;49.456;8.164;2024-03-23T06:47:13;99102.34;;;7.86;95.56
16777;BME280;8505;49.456;8.164;2024-03-23T06:49:40;99126.69;;;8.04;94.20
16777;BME280;8505;49.456;8.164;2024-03-23T06:52:06;99119.28;;;8.08;93.69
16777;BME280;8505;49.456;8.164;2024-03-23T06:54:32;99135.69;;;8.18;91.66
16777;BME280;8505;49.456;8.164;2024-03-23T06:57:00;99152.38;;;8.02;89.73
16777;BME280;8505;49.456;8.164;2024-03-23T06:59:26;99161.63;;;8.06;90.77
16777;BME280;8505;49.456;8.164;2024-03-23T07:01:53;99167.03;;;8.13;89.75
16777;BME280;8505;49.456;8.164;2024-03-23T07:04:19;99163.81;;;7.95;90.39
16777;BME280;8505;49.456;8.164;2024-03-23T07:06:45;99169.16;;;8.18;89.82
16777;BME280;8505;49.456;8.164;2024-03-23T07:09:12;99168.66;;;8.22;88.91
16777;BME280;8505;49.456;8.164;2024-03-23T07:11:38;99166.00;;;8.38;88.03
16777;BME280;8505;49.456;8.164;2024-03-23T07:14:06;99163.16;;;8.40;86.79
16777;BME280;8505;49.456;8.164;2024-03-23T07:16:32;99191.09;;;8.65;86.68
16777;BME280;8505;49.456;8.164;2024-03-23T07:18:59;99194.34;;;8.75;86.07
16777;BME280;8505;49.456;8.164;2024-03-23T07:21:26;99203.41;;;8.81;85.50
16777;BME280;8505;49.456;8.164;2024-03-23T07:23:51;99221.03;;;8.80;85.35
16777;BME280;8505;49.456;8.164;2024-03-23T07:26:18;99227.72;;;8.60;82.82
16777;BME280;8505;49.456;8.164;2024-03-23T07:28:44;99231.44;;;8.35;84.08
16777;BME280;8505;49.456;8.164;2024-03-23T07:31:13;99229.25;;;8.46;82.95
16777;BME280;8505;49.456;8.164;2024-03-23T07:33:43;99232.72;;;8.55;83.57
16777;BME280;8505;49.456;8.164;2024-03-23T07:36:10;99231.47;;;8.27;82.18
16777;BME280;8505;49.456;8.164;2024-03-23T07:38:36;99245.16;;;8.30;83.03
16777;BME280;8505;49.456;8.164;2024-03-23T07:41:04;99246.00;;;8.15;79.73
16777;BME280;8505;49.456;8.164;2024-03-23T07:43:30;99263.25;;;8.33;80.00
16777;BME280;8505;49.456;8.164;2024-03-23T07:45:56;99254.03;;;8.37;79.47
16777;BME280;8505;49.456;8.164;2024-03-23T07:48:24;99259.47;;;8.44;79.42
16777;BME280;8505;49.456;8.164;2024-03-23T07:50:58;99265.19;;;8.56;78.37
16777;BME280;8505;49.456;8.164;2024-03-23T07:53:24;99265.38;;;8.46;76.02
16777;BME280;8505;49.456;8.164;2024-03-23T07:55:56;99274.41;;;8.68;76.48
16777;BME280;8505;49.456;8.164;2024-03-23T07:58:22;99268.44;;;8.74;76.75
16777;BME280;8505;49.456;8.164;2024-03-23T08:00:49;99271.63;;;8.53;76.54
16777;BME280;8505;49.456;8.164;2024-03-23T08:03:14;99270.59;;;9.32;75.36
16777;BME280;8505;49.456;8.164;2024-03-23T08:05:42;99281.94;;;9.63;74.25
16777;BME280;8505;49.456;8.164;2024-03-23T08:08:08;99293.88;;;9.59;74.48
16777;BME280;8505;49.456;8.164;2024-03-23T08:10:35;99294.13;;;9.50;73.97
16777;BME280;8505;49.456;8.164;2024-03-23T08:13:00;99295.88;;;9.57;73.96
16777;BME280;8505;49.456;8.164;2024-03-23T08:15:30;99288.63;;;9.51;73.06
16777;BME280;8505;49.456;8.164;2024-03-23T08:17:58;99299.09;;;9.45;73.27
16777;BME280;8505;49.456;8.164;2024-03-23T08:20:25;99300.41;;;9.71;72.07
16777;BME280;8505;49.456;8.164;2024-03-23T08:22:52;99313.91;;;10.22;70.02
16777;BME280;8505;49.456;8.164;2024-03-23T08:25:19;99317.16;;;10.91;67.57
16777;BME280;8505;49.456;8.164;2024-03-23T08:27:45;99301.78;;;11.37;65.13
16777;BME280;8505;49.456;8.164;2024-03-23T08:30:12;99309.47;;;10.96;65.34
16777;BME280;8505;49.456;8.164;2024-03-23T08:32:38;99303.16;;;10.97;65.52
16777;BME280;8505;49.456;8.164;2024-03-23T08:35:06;99309.66;;;10.80;64.29
16777;BME280;8505;49.456;8.164;2024-03-23T08:37:32;99324.69;;;10.35;63.98
16777;BME280;8505;49.456;8.164;2024-03-23T08:40:00;99319.63;;;10.26;63.88
16777;BME280;8505;49.456;8.164;2024-03-23T08:42:26;99318.47;;;10.28;63.57
16777;BME280;8505;49.456;8.164;2024-03-23T08:44:52;99325.88;;;11.06;61.37
16777;BME280;8505;49.456;8.164;2024-03-23T08:47:18;99327.84;;;10.98;59.77
16777;BME280;8505;49.456;8.164;2024-03-23T08:49:45;99324.34;;;10.82;60.03
16777;BME280;8505;49.456;8.164;2024-03-23T08:52:11;99334.75;;;10.69;61.02
16777;BME280;8505;49.456;8.164;2024-03-23T08:54:37;99337.31;;;10.63;61.74
16777;BME280;8505;49.456;8.164;2024-03-23T08:57:05;99342.97;;;10.60;62.65
16777;BME280;8505;49.456;8.164;2024-03-23T08:59:32;99342.88;;;10.15;62.22
16777;BME280;8505;49.456;8.164;2024-03-23T09:01:58;99343.56;;;10.09;63.13
16777;BME280;8505;49.456;8.164;2024-03-23T09:04:25;99340.28;;;10.07;62.02
16777;BME280;8505;49.456;8.164;2024-03-23T09:06:51;99337.13;;;10.12;62.59
16777;BME280;8505;49.456;8.164;2024-03-23T09:09:17;99335.56;;;10.40;62.79
16777;BME280;8505;49.456;8.164;2024-03-23T09:11:45;99350.25;;;11.31;58.83
16777;BME280;8505;49.456;8.164;2024-03-23T09:14:13;99339.13;;;11.06;57.01
16777;BME280;8505;49.456;8.164;2024-03-23T09:16:39;99322.59;;;10.45;56.01
16777;BME280;8505;49.456;8.164;2024-03-23T09:19:06;99337.53;;;10.24;57.71
16777;BME280;8505;49.456;8.164;2024-03-23T09:21:31;99322.91;;;10.65;57.35
16777;BME280;8505;49.456;8.164;2024-03-23T09:23:59;99339.72;;;10.72;55.40
16777;BME280;8505;49.456;8.164;2024-03-23T09:26:25;99351.34;;;11.72;53.56
16777;BME280;8505;49.456;8.164;2024-03-23T09:28:52;99330.13;;;11.36;54.07
16777;BME280;8505;49.456;8.164;2024-03-23T09:31:19;99329.28;;;12.36;51.44
16777;BME280;8505;49.456;8.164;2024-03-23T09:33:45;99334.38;;;12.93;51.80
16777;BME280;8505;49.456;8.164;2024-03-23T09:36:13;99327.13;;;12.46;51.32
16777;BME280;8505;49.456;8.164;2024-03-23T09:38:40;99338.69;;;11.89;51.46
16777;BME280;8505;49.456;8.164;2024-03-23T09:41:07;99340.84;;;11.64;53.09
16777;BME280;8505;49.456;8.164;2024-03-23T09:43:35;99329.47;;;11.49;53.34
16777;BME280;8505;49.456;8.164;2024-03-23T09:46:02;99330.19;;;11.22;53.87
16777;BME280;8505;49.456;8.164;2024-03-23T09:48:30;99330.59;;;11.40;54.64
16777;BME280;8505;49.456;8.164;2024-03-23T09:50:56;99326.31;;;11.60;53.17
16777;BME280;8505;49.456;8.164;2024-03-23T09:53:23;99331.47;;;12.04;52.60
16777;BME280;8505;49.456;8.164;2024-03-23T09:55:49;99326.41;;;12.59;50.61
16777;BME280;8505;49.456;8.164;2024-03-23T09:58:17;99320.41;;;12.50;48.21
16777;BME280;8505;49.456;8.164;2024-03-23T10:00:43;99316.50;;;12.80;46.97
16777;BME280;8505;49.456;8.164;2024-03-23T10:03:10;99324.44;;;12.74;46.66
16777;BME280;8505;49.456;8.164;2024-03-23T10:05:38;99329.03;;;11.67;46.76
16777;BME280;8505;49.456;8.164;2024-03-23T10:08:17;99335.56;;;11.28;47.39
16777;BME280;8505;49.456;8.164;2024-03-23T10:10:45;99328.78;;;11.41;47.68
16777;BME280;8505;49.456;8.164;2024-03-23T10:13:23;99323.47;;;11.77;45.53
16777;BME280;8505;49.456;8.164;2024-03-23T10:15:54;99327.78;;;11.63;46.33
16777;BME280;8505;49.456;8.164;2024-03-23T10:18:21;99311.28;;;11.10;47.15
16777;BME280;8505;49.456;8.164;2024-03-23T10:21:06;99322.84;;;11.24;47.31
16777;BME280;8505;49.456;8.164;2024-03-23T10:23:34;99318.91;;;12.13;46.03
16777;BME280;8505;49.456;8.164;2024-03-23T10:26:12;99328.16;;;12.24;45.27
16777;BME280;8505;49.456;8.164;2024-03-23T10:28:50;99329.38;;;12.49;44.67
16777;BME280;8505;49.456;8.164;2024-03-23T10:31:17;99333.59;;;11.73;46.54
16777;BME280;8505;49.456;8.164;2024-03-23T10:33:45;99331.75;;;12.37;45.10
16777;BME280;8505;49.456;8.164;2024-03-23T10:36:12;99327.13;;;11.75;46.18
16777;BME280;8505;49.456;8.164;2024-03-23T10:38:40;99318.31;;;11.03;46.92
16777;BME280;8505;49.456;8.164;2024-03-23T10:41:07;99330.09;;;11.15;47.81
16777;BME280;8505;49.456;8.164;2024-03-23T10:43:36;99328.53;;;11.57;47.18
16777;BME280;8505;49.456;8.164;2024-03-23T10:46:02;99316.59;;;11.82;46.59
16777;BME280;8505;49.456;8.164;2024-03-23T10:48:29;99293.28;;;12.95;45.54
16777;BME280;8505;49.456;8.164;2024-03-23T10:50:55;99287.38;;;13.54;43.12
16777;BME280;8505;49.456;8.164;2024-03-23T10:53:26;99301.75;;;13.73;43.21
16777;BME280;8505;49.456;8.164;2024-03-23T10:55:52;99307.75;;;13.27;43.20
16777;BME280;8505;49.456;8.164;2024-03-23T10:58:23;99298.78;;;13.35;42.96
16777;BME280;8505;49.456;8.164;2024-03-23T11:00:49;99280.34;;;13.20;43.49
16777;BME280;8505;49.456;8.164;2024-03-23T11:03:30;99282.66;;;12.61;43.92
16777;BME280;8505;49.456;8.164;2024-03-23T11:05:56;99283.00;;;12.86;43.92
16777;BME280;8505;49.456;8.164;2024-03-23T11:08:34;99276.28;;;13.31;43.69
16777;BME280;8505;49.456;8.164;2024-03-23T11:11:19;99271.63;;;13.59;43.49
16777;BME280;8505;49.456;8.164;2024-03-23T11:13:48;99286.59;;;13.80;42.83
16777;BME280;8505;49.456;8.164;2024-03-23T11:16:15;99300.75;;;13.13;44.66
16777;BME280;8505;49.456;8.164;2024-03-23T11:18:43;99309.28;;;12.12;53.00
16777;BME280;8505;49.456;8.164;2024-03-23T11:24:20;99374.91;;;9.13;71.61
16777;BME280;8505;49.456;8.164;2024-03-23T11:26:46;99363.31;;;9.14;75.99
16777;BME280;8505;49.456;8.164;2024-03-23T11:29:14;99368.59;;;9.14;74.27
16777;BME280;8505;49.456;8.164;2024-03-23T11:31:45;99360.31;;;9.25;72.61
16777;BME280;8505;49.456;8.164;2024-03-23T11:34:13;99355.31;;;9.00;73.93
16777;BME280;8505;49.456;8.164;2024-03-23T11:36:38;99357.13;;;8.99;73.95
16777;BME280;8505;49.456;8.164;2024-03-23T11:39:12;99341.44;;;9.37;72.95
16777;BME280;8505;49.456;8.164;2024-03-23T11:41:46;99337.69;;;9.23;73.40
16777;BME280;8505;49.456;8.164;2024-03-23T11:44:17;99336.06;;;9.14;74.03
16777;BME280;8505;49.456;8.164;2024-03-23T11:46:43;99330.09;;;9.51;71.62
16777;BME280;8505;49.456;8.164;2024-03-23T11:49:23;99323.56;;;10.07;70.46
16777;BME280;8505;49.456;8.164;2024-03-23T11:51:48;99314.69;;;10.89;69.09
16777;BME280;8505;49.456;8.164;2024-03-23T11:54:15;99309.09;;;11.92;65.41
16777;BME280;8505;49.456;8.164;2024-03-23T11:56:53;99300.78;;;11.38;60.35
16777;BME280;8505;49.456;8.164;2024-03-23T11:59:31;99315.41;;;10.98;64.01
16777;BME280;8505;49.456;8.164;2024-03-23T12:01:57;99346.41;;;10.08;69.28
16777;BME280;8505;49.456;8.164;2024-03-23T12:04:26;99375.38;;;8.62;79.55
16777;BME280;8505;49.456;8.164;2024-03-23T12:07:09;99386.25;;;7.94;82.89
16777;BME280;8505;49.456;8.164;2024-03-23T12:09:36;99374.09;;;9.05;85.50
16777;BME280;8505;49.456;8.164;2024-03-23T12:12:08;99346.16;;;9.49;80.46
16777;BME280;8505;49.456;8.164;2024-03-23T12:14:34;99339.41;;;9.39;78.05
16777;BME280;8505;49.456;8.164;2024-03-23T12:17:08;99338.22;;;9.95;76.89
16777;BME280;8505;49.456;8.164;2024-03-23T12:19:35;99330.00;;;9.44;77.69
16777;BME280;8505;49.456;8.164;2024-03-23T12:22:03;99325.22;;;10.08;73.77
16777;BME280;8505;49.456;8.164;2024-03-23T12:24:29;99319.31;;;10.43;71.56
16777;BME280;8505;49.456;8.164;2024-03-23T12:26:59;99307.38;;;10.77;68.90
16777;BME280;8505;49.456;8.164;2024-03-23T12:29:28;99305.25;;;10.87;68.28
16777;BME280;8505;49.456;8.164;2024-03-23T12:31:56;99309.34;;;10.08;68.42
16777;BME280;8505;49.456;8.164;2024-03-23T12:34:22;99381.56;;;9.63;70.88
16777;BME280;8505;49.456;8.164;2024-03-23T12:36:48;99404.69;;;7.94;80.11
16777;BME280;8505;49.456;8.164;2024-03-23T12:39:15;99413.25;;;7.88;84.01
16777;BME280;8505;49.456;8.164;2024-03-23T12:41:40;99414.06;;;6.96;85.74
16777;BME280;8505;49.456;8.164;2024-03-23T12:44:08;99431.59;;;6.62;92.05
16777;BME280;8505;49.456;8.164;2024-03-23T12:46:38;99409.22;;;5.96;93.52
16777;BME280;8505;49.456;8.164;2024-03-23T12:49:05;99371.25;;;5.81;92.54
16777;BME280;8505;49.456;8.164;2024-03-23T12:51:31;99353.28;;;6.04;93.29
16777;BME280;8505;49.456;8.164;2024-03-23T12:53:58;99348.84;;;6.82;97.19
16777;BME280;8505;49.456;8.164;2024-03-23T12:56:24;99342.53;;;7.67;94.91
16777;BME280;8505;49.456;8.164;2024-03-23T12:58:50;99323.59;;;7.80;85.62
16777;BME280;8505;49.456;8.164;2024-03-23T13:01:17;99312.25;;;7.63;85.49
16777;BME280;8505;49.456;8.164;2024-03-23T13:03:47;99305.47;;;8.33;85.53
16777;BME280;8505;49.456;8.164;2024-03-23T13:06:13;99303.66;;;8.50;85.41
16777;BME280;8505;49.456;8.164;2024-03-23T13:08:39;99298.97;;;8.68;85.13
16777;BME280;8505;49.456;8.164;2024-03-23T13:11:06;99288.69;;;8.81;82.45
16777;BME280;8505;49.456;8.164;2024-03-23T13:13:34;99278.59;;;8.85;84.16
16777;BME280;8505;49.456;8.164;2024-03-23T13:15:59;99275.19;;;8.76;80.28
16777;BME280;8505;49.456;8.164;2024-03-23T13:18:27;99281.84;;;9.26;82.03
16777;BME280;8505;49.456;8.164;2024-03-23T13:20:55;99276.81;;;9.39;81.60
16777;BME280;8505;49.456;8.164;2024-03-23T13:23:21;99279.69;;;9.07;78.45
16777;BME280;8505;49.456;8.164;2024-03-23T13:25:50;99275.81;;;9.17;79.60
16777;BME280;8505;49.456;8.164;2024-03-23T13:28:18;99269.53;;;9.18;79.66
16777;BME280;8505;49.456;8.164;2024-03-23T13:30:50;99269.97;;;9.30;74.19
16777;BME280;8505;49.456;8.164;2024-03-23T13:33:16;99277.88;;;9.30;76.16
16777;BME280;8505;49.456;8.164;2024-03-23T13:35:49;99269.75;;;9.09;77.43
16777;BME280;8505;49.456;8.164;2024-03-23T13:38:17;99256.50;;;9.40;75.60
16777;BME280;8505;49.456;8.164;2024-03-23T13:40:51;99249.06;;;9.43;75.02
16777;BME280;8505;49.456;8.164;2024-03-23T13:43:18;99246.88;;;9.69;74.59
16777;BME280;8505;49.456;8.164;2024-03-23T13:45:44;99247.88;;;9.46;73.98
16777;BME280;8505;49.456;8.164;2024-03-23T13:48:10;99243.13;;;9.41;74.30
16777;BME280;8505;49.456;8.164;2024-03-23T13:50:36;99264.38;;;9.70;71.17
16777;BME280;8505;49.456;8.164;2024-03-23T13:53:03;99266.59;;;9.82;73.21
16777;BME280;8505;49.456;8.164;2024-03-23T13:55:30;99268.72;;;10.68;69.36
16777;BME280;8505;49.456;8.164;2024-03-23T13:57:57;99265.63;;;10.49;67.14
16777;BME280;8505;49.456;8.164;2024-03-23T14:00:23;99263.16;;;10.33;65.10
16777;BME280;8505;49.456;8.164;2024-03-23T14:02:50;99264.84;;;9.74;65.59
16777;BME280;8505;49.456;8.164;2024-03-23T14:05:16;99269.91;;;10.21;64.85
16777;BME280;8505;49.456;8.164;2024-03-23T14:07:43;99255.41;;;10.17;65.28
16777;BME280;8505;49.456;8.164;2024-03-23T14:10:09;99261.69;;;10.31;63.89
16777;BME280;8505;49.456;8.164;2024-03-23T14:12:38;99261.63;;;10.53;62.71